createdAt,value
2019-01-14T00:02:14.004Z,7.40
2019-01-14T00:04:42.314Z,7.30
2019-01-14T00:07:10.582Z,7.30
2019-01-14T00:09:41.816Z,7.30
2019-01-14T00:12:10.122Z,7.30
2019-01-14T00:14:38.429Z,7.20
2019-01-14T00:17:06.715Z,7.30
2019-01-14T00:19:35.021Z,7.20
2019-01-14T00:22:03.368Z,7.20
2019-01-14T00:24:31.642Z,7.20
2019-01-14T00:27:00.098Z,7.20
2019-01-14T00:29:28.373Z,7.20
2019-01-14T00:31:56.643Z,7.20
2019-01-14T00:34:25.341Z,7.20
2019-01-14T00:36:53.689Z,7.20
2019-01-14T00:39:21.960Z,7.20
2019-01-14T00:41:50.352Z,7.10
2019-01-14T00:44:18.632Z,7.20
2019-01-14T00:46:47.070Z,7.20
2019-01-14T00:49:16.336Z,7.30
2019-01-14T00:51:44.618Z,7.30
2019-01-14T00:54:12.916Z,7.30
2019-01-14T00:56:41.226Z,7.30
2019-01-14T00:59:09.518Z,7.20
2019-01-14T01:01:37.856Z,7.20
2019-01-14T01:04:06.452Z,7.10
2019-01-14T01:06:34.807Z,7.10
2019-01-14T01:09:04.780Z,7.00
2019-01-14T01:11:33.174Z,7.00
2019-01-14T01:14:01.629Z,7.00
2019-01-14T01:16:29.932Z,7.00
2019-01-14T01:19:00.026Z,7.00
2019-01-14T01:21:28.338Z,7.00
2019-01-14T01:23:56.763Z,7.00
2019-01-14T01:26:27.260Z,7.00
2019-01-14T01:28:55.528Z,7.00
2019-01-14T01:31:23.876Z,7.00
2019-01-14T01:33:52.187Z,7.00
2019-01-14T01:36:20.471Z,7.00
2019-01-14T01:38:50.150Z,6.90
2019-01-14T01:41:19.609Z,6.90
2019-01-14T01:43:48.119Z,7.00
2019-01-14T01:46:16.387Z,6.90
2019-01-14T01:48:47.563Z,6.90
2019-01-14T01:51:15.845Z,6.90
2019-01-14T01:53:45.754Z,7.00
2019-01-14T01:56:14.059Z,7.00
2019-01-14T01:58:42.331Z,7.00
2019-01-14T02:01:10.602Z,7.00
2019-01-14T02:03:42.605Z,7.10
2019-01-14T02:06:10.877Z,7.20
2019-01-14T02:08:39.157Z,7.30
2019-01-14T02:11:07.633Z,7.30
2019-01-14T02:13:37.007Z,7.30
2019-01-14T02:16:05.279Z,7.40
2019-01-14T02:18:37.005Z,7.30
2019-01-14T02:21:05.492Z,7.20
2019-01-14T02:23:36.957Z,7.00
2019-01-14T02:26:05.253Z,6.70
2019-01-14T02:28:34.701Z,6.50
2019-01-14T02:31:03.025Z,6.30
2019-01-14T02:33:31.374Z,6.10
2019-01-14T02:35:59.979Z,6.10
2019-01-14T02:38:29.995Z,6.00
2019-01-14T02:40:58.293Z,6.00
2019-01-14T02:43:29.901Z,6.00
2019-01-14T02:46:03.314Z,5.90
2019-01-14T02:48:37.459Z,5.90
2019-01-14T02:51:12.043Z,5.90
2019-01-14T02:53:47.259Z,6.00
2019-01-14T02:56:17.369Z,6.00
2019-01-14T02:58:53.204Z,6.00
2019-01-14T03:01:22.377Z,6.00
2019-01-14T03:03:50.844Z,6.00
2019-01-14T03:06:19.119Z,6.00
2019-01-14T03:08:48.426Z,6.00
2019-01-14T03:11:16.804Z,6.00
2019-01-14T03:13:48.456Z,6.10
2019-01-14T03:16:16.841Z,6.00
2019-01-14T03:18:45.145Z,6.00
2019-01-14T03:21:13.410Z,6.00
2019-01-14T03:23:41.754Z,6.10
2019-01-14T03:26:10.126Z,6.10
2019-01-14T03:28:38.496Z,6.10
2019-01-14T03:31:06.794Z,6.10
2019-01-14T03:33:36.206Z,6.20
2019-01-14T03:36:04.678Z,6.10
2019-01-14T03:38:32.968Z,6.10
2019-01-14T03:41:04.266Z,6.10
2019-01-14T03:43:32.686Z,6.10
2019-01-14T03:46:00.970Z,6.10
2019-01-14T03:48:29.363Z,6.10
2019-01-14T03:50:57.619Z,6.10
2019-01-14T03:53:25.982Z,6.20
2019-01-14T03:55:54.276Z,6.20
2019-01-14T03:58:25.108Z,6.20
2019-01-14T04:00:53.483Z,6.20
2019-01-14T04:03:21.767Z,6.30
2019-01-14T04:05:51.514Z,6.30
2019-01-14T04:08:19.815Z,6.40
2019-01-14T04:10:48.465Z,6.40
2019-01-14T04:13:16.738Z,6.40
2019-01-14T04:15:45.816Z,6.40
2019-01-14T04:18:14.209Z,6.40
2019-01-14T04:20:43.791Z,6.40
2019-01-14T04:23:12.388Z,6.40
2019-01-14T04:25:40.674Z,6.50
2019-01-14T04:28:09.145Z,6.40
2019-01-14T04:30:37.756Z,6.40
2019-01-14T04:33:06.102Z,6.40
2019-01-14T04:35:37.166Z,6.40
2019-01-14T04:38:07.622Z,6.40
2019-01-14T04:40:36.056Z,6.40
2019-01-14T04:43:04.432Z,6.40
2019-01-14T04:45:32.925Z,6.40
2019-01-14T04:48:01.207Z,6.40
2019-01-14T04:50:30.494Z,6.40
2019-01-14T04:52:58.923Z,6.30
2019-01-14T04:55:29.733Z,6.30
2019-01-14T04:57:58.022Z,6.30
2019-01-14T05:00:26.369Z,6.30
2019-01-14T05:02:54.967Z,6.30
2019-01-14T05:05:25.385Z,6.20
2019-01-14T05:07:53.663Z,6.20
2019-01-14T05:10:25.006Z,6.20
2019-01-14T05:12:53.601Z,6.20
2019-01-14T05:15:23.555Z,6.20
2019-01-14T05:17:52.456Z,6.20
2019-01-14T05:20:23.566Z,6.10
2019-01-14T05:22:52.186Z,6.10
2019-01-14T05:25:23.327Z,6.00
2019-01-14T05:27:51.714Z,6.00
2019-01-14T05:30:20.538Z,6.00
2019-01-14T05:32:50.584Z,5.90
2019-01-14T05:35:18.890Z,5.90
2019-01-14T05:37:51.741Z,5.80
2019-01-14T05:40:22.643Z,5.80
2019-01-14T05:42:51.134Z,5.80
2019-01-14T05:45:19.515Z,5.80
2019-01-14T05:47:47.784Z,5.80
2019-01-14T05:50:16.559Z,5.80
2019-01-14T05:52:46.211Z,5.80
2019-01-14T05:55:15.459Z,5.80
2019-01-14T05:57:43.758Z,5.80
2019-01-14T06:00:18.023Z,5.90
2019-01-14T06:02:46.352Z,6.00
2019-01-14T06:05:16.369Z,6.00
2019-01-14T06:07:45.163Z,6.10
2019-01-14T06:10:13.711Z,6.10
2019-01-14T06:12:42.023Z,6.10
2019-01-14T06:15:12.741Z,6.20
2019-01-14T06:17:41.008Z,6.20
2019-01-14T06:20:12.683Z,6.20
2019-01-14T06:22:41.029Z,6.20
2019-01-14T06:25:11.215Z,6.20
2019-01-14T06:27:39.592Z,6.20
2019-01-14T06:30:14.315Z,6.30
2019-01-14T06:32:42.595Z,6.30
2019-01-14T06:35:11.001Z,6.20
2019-01-14T06:37:39.282Z,6.20
2019-01-14T06:40:10.693Z,6.20
2019-01-14T06:42:39.246Z,6.20
2019-01-14T06:45:14.276Z,6.20
2019-01-14T06:47:42.580Z,6.20
2019-01-14T06:50:15.630Z,6.10
2019-01-14T06:52:44.338Z,6.20
2019-01-14T06:55:14.324Z,6.10
2019-01-14T06:57:42.698Z,6.20
2019-01-14T07:00:14.311Z,6.10
2019-01-14T07:02:42.822Z,6.20
2019-01-14T07:05:11.174Z,6.10
2019-01-14T07:07:39.458Z,6.20
2019-01-14T07:10:12.264Z,6.20
2019-01-14T07:12:40.602Z,6.20
2019-01-14T07:15:09.182Z,6.20
2019-01-14T07:17:39.080Z,6.20
2019-01-14T07:20:10.228Z,6.20
2019-01-14T07:22:38.748Z,6.20
2019-01-14T07:25:09.969Z,6.20
2019-01-14T07:27:38.468Z,6.20
2019-01-14T07:30:23.094Z,6.20
2019-01-14T07:32:51.550Z,6.20
2019-01-14T07:35:20.296Z,6.30
2019-01-14T07:37:48.685Z,6.30
2019-01-14T07:40:18.999Z,6.30
2019-01-14T07:42:48.208Z,6.30
2019-01-14T07:45:17.974Z,6.30
2019-01-14T07:47:46.237Z,6.20
2019-01-14T07:50:17.310Z,6.20
2019-01-14T07:52:45.744Z,6.20
2019-01-14T07:55:14.055Z,6.30
2019-01-14T07:57:42.370Z,6.30
2019-01-14T08:00:13.913Z,6.30
2019-01-14T08:02:42.344Z,6.40
2019-01-14T08:05:10.702Z,6.40
2019-01-14T08:07:39.053Z,6.40
2019-01-14T08:10:08.545Z,6.40
2019-01-14T08:12:36.961Z,6.40
2019-01-14T08:15:12.241Z,6.40
2019-01-14T08:17:40.514Z,6.40
2019-01-14T08:20:12.077Z,6.30
2019-01-14T08:22:40.477Z,6.30
2019-01-14T08:25:13.791Z,6.20
2019-01-14T08:27:43.511Z,6.20
2019-01-14T08:30:15.682Z,6.20
2019-01-14T08:32:46.697Z,6.10
2019-01-14T08:35:14.982Z,6.00
2019-01-14T08:37:44.597Z,6.00
2019-01-14T08:40:14.995Z,5.90
2019-01-14T08:42:43.325Z,5.90
2019-01-14T08:45:12.863Z,6.00
2019-01-14T08:47:44.261Z,6.00
2019-01-14T08:50:18.376Z,6.20
2019-01-14T08:52:46.951Z,6.30
2019-01-14T08:55:15.315Z,6.40
2019-01-14T08:57:43.576Z,6.50
2019-01-14T09:00:18.134Z,6.60
2019-01-14T09:02:46.686Z,6.60
2019-01-14T09:05:15.234Z,6.70
2019-01-14T09:07:43.652Z,6.70
2019-01-14T09:10:35.474Z,6.70
2019-01-14T09:13:05.171Z,6.60
2019-01-14T09:15:35.647Z,6.50
2019-01-14T09:18:04.029Z,6.50
2019-01-14T09:20:32.413Z,6.60
2019-01-14T09:23:00.697Z,6.80
2019-01-14T09:25:30.326Z,7.10
2019-01-14T09:27:58.696Z,7.20
2019-01-14T09:30:29.907Z,7.40
2019-01-14T09:32:59.477Z,7.50
2019-01-14T09:35:29.054Z,7.70
2019-01-14T09:37:57.380Z,8.00
2019-01-14T09:40:25.936Z,8.20
2019-01-14T09:42:54.214Z,8.40
2019-01-14T09:45:22.600Z,8.40
2019-01-14T09:47:50.911Z,8.60
2019-01-14T09:50:21.401Z,8.70
2019-01-14T09:52:49.881Z,8.70
2019-01-14T09:55:18.812Z,8.70
2019-01-14T09:57:47.263Z,8.40
2019-01-14T10:00:15.632Z,8.30
2019-01-14T10:02:47.342Z,8.40
2019-01-14T10:05:17.022Z,8.60
2019-01-14T10:07:46.345Z,8.80
2019-01-14T10:10:16.152Z,8.90
2019-01-14T10:12:44.502Z,9.10
2019-01-14T10:15:15.798Z,9.20
2019-01-14T10:17:44.800Z,9.20
2019-01-14T10:20:13.981Z,9.20
2019-01-14T10:22:42.590Z,9.10
2019-01-14T10:25:10.908Z,9.00
2019-01-14T10:27:42.430Z,8.70
2019-01-14T10:30:14.704Z,8.40
2019-01-14T10:32:43.046Z,7.80
2019-01-14T10:35:11.670Z,7.20
2019-01-14T10:37:40.194Z,6.70
2019-01-14T10:40:14.976Z,6.50
2019-01-14T10:42:43.488Z,6.30
2019-01-14T10:45:15.582Z,6.10
2019-01-14T10:47:44.000Z,6.00
2019-01-14T10:50:13.199Z,6.00
2019-01-14T10:52:41.714Z,5.90
2019-01-14T10:55:12.427Z,5.80
2019-01-14T10:57:40.620Z,5.80
2019-01-14T11:00:12.220Z,5.70
2019-01-14T11:02:42.216Z,5.60
2019-01-14T11:05:11.524Z,5.80
2019-01-14T11:07:39.897Z,6.20
2019-01-14T11:10:10.325Z,6.70
2019-01-14T11:12:43.313Z,7.30
2019-01-14T11:15:14.386Z,7.80
2019-01-14T11:17:42.671Z,8.20
2019-01-14T11:20:26.169Z,8.50
2019-01-14T11:22:54.454Z,8.80
2019-01-14T11:25:25.997Z,9.00
2019-01-14T11:27:56.371Z,9.30
2019-01-14T11:30:28.854Z,9.60
2019-01-14T11:32:59.916Z,9.60
2019-01-14T11:35:28.216Z,9.70
2019-01-14T11:37:57.893Z,9.80
2019-01-14T11:40:34.526Z,9.90
2019-01-14T11:43:03.107Z,10.10
2019-01-14T11:45:31.465Z,10.10
2019-01-14T11:47:59.805Z,10.10
2019-01-14T11:50:28.189Z,10.10
2019-01-14T11:52:56.477Z,10.20
2019-01-14T11:55:26.662Z,10.30
2019-01-14T11:57:55.867Z,10.30
2019-01-14T12:00:26.499Z,10.10
2019-01-14T12:02:56.513Z,10.00
2019-01-14T12:05:24.888Z,9.90
2019-01-14T12:07:54.781Z,10.00
2019-01-14T12:10:24.618Z,10.10
2019-01-14T12:12:52.944Z,10.20
2019-01-14T12:15:24.021Z,10.30
2019-01-14T12:17:52.374Z,10.20
2019-01-14T12:20:21.885Z,10.00
2019-01-14T12:22:50.191Z,10.00
2019-01-14T12:25:19.926Z,10.00
2019-01-14T12:27:49.175Z,10.00
2019-01-14T12:30:28.937Z,9.90
2019-01-14T12:32:57.925Z,10.10
2019-01-14T12:35:29.257Z,10.20
2019-01-14T12:37:58.841Z,10.30
2019-01-14T12:40:27.250Z,10.30
2019-01-14T12:42:55.693Z,10.20
2019-01-14T12:45:25.659Z,10.20
2019-01-14T12:47:53.933Z,10.30
2019-01-14T12:50:23.797Z,10.30
2019-01-14T12:52:52.240Z,10.00
2019-01-14T12:55:20.573Z,9.60
2019-01-14T12:57:48.911Z,9.20
2019-01-14T13:00:29.898Z,8.90
2019-01-14T13:02:58.923Z,8.60
2019-01-14T13:05:30.170Z,8.30
2019-01-14T13:07:59.772Z,8.10
2019-01-14T13:10:31.006Z,7.90
2019-01-14T13:12:59.426Z,7.80
2019-01-14T13:15:29.181Z,7.70
2019-01-14T13:17:57.498Z,7.60
2019-01-14T13:20:29.349Z,7.60
2019-01-14T13:22:57.926Z,7.70
2019-01-14T13:25:30.231Z,7.90
2019-01-14T13:27:58.754Z,8.10
2019-01-14T13:30:28.559Z,8.40
2019-01-14T13:32:57.195Z,8.40
2019-01-14T13:35:26.166Z,8.40
2019-01-14T13:37:56.561Z,8.30
2019-01-14T13:40:24.898Z,8.10
2019-01-14T13:42:54.627Z,7.90
2019-01-14T13:45:23.444Z,7.80
2019-01-14T13:47:51.889Z,7.70
2019-01-14T13:50:30.203Z,7.70
2019-01-14T13:53:00.395Z,7.80
2019-01-14T13:55:29.070Z,7.90
2019-01-14T13:57:59.987Z,8.10
2019-01-14T14:00:27.574Z,8.10
2019-01-14T14:03:00.400Z,8.10
2019-01-14T14:05:31.800Z,7.80
2019-01-14T14:08:00.384Z,7.60
2019-01-14T14:10:29.422Z,7.40
2019-01-14T14:12:57.796Z,7.30
2019-01-14T14:15:26.238Z,7.20
2019-01-14T14:17:54.642Z,7.20
2019-01-14T14:20:24.682Z,7.20
2019-01-14T14:22:55.469Z,7.10
2019-01-14T14:25:23.752Z,7.10
2019-01-14T14:27:53.461Z,7.10
2019-01-14T14:30:30.689Z,7.00
2019-01-14T14:32:59.576Z,7.00
2019-01-14T14:35:29.577Z,6.90
2019-01-14T14:38:01.310Z,6.90
2019-01-14T14:40:27.858Z,6.80
2019-01-14T14:42:56.208Z,6.70
2019-01-14T14:45:24.510Z,6.70
2019-01-14T14:47:52.783Z,6.60
2019-01-14T14:50:21.535Z,6.50
2019-01-14T14:52:49.966Z,6.40
2019-01-14T14:55:19.437Z,6.30
2019-01-14T14:57:47.828Z,6.30
2019-01-14T15:00:22.806Z,6.20
2019-01-14T15:02:51.218Z,6.20
2019-01-14T15:05:19.521Z,6.20
2019-01-14T15:07:47.809Z,6.30
2019-01-14T15:10:19.097Z,6.20
2019-01-14T15:12:47.487Z,6.20
2019-01-14T15:15:17.395Z,6.20
2019-01-14T15:17:45.760Z,6.20
2019-01-14T15:20:16.197Z,6.10
2019-01-14T15:22:44.721Z,6.10
2019-01-14T15:25:13.758Z,6.00
2019-01-14T15:27:43.339Z,6.00
2019-01-14T15:30:20.063Z,6.00
2019-01-14T15:32:48.326Z,5.90
2019-01-14T15:35:16.751Z,5.90
2019-01-14T15:37:46.328Z,5.90
2019-01-14T15:40:16.719Z,5.80
2019-01-14T15:42:45.224Z,5.80
2019-01-14T15:45:19.757Z,5.80
2019-01-14T15:47:48.091Z,5.80
2019-01-14T15:50:19.869Z,5.70
2019-01-14T15:52:48.215Z,5.70
2019-01-14T15:55:24.313Z,5.60
2019-01-14T15:57:52.933Z,5.50
2019-01-14T16:00:22.272Z,5.50
2019-01-14T16:02:50.639Z,5.50
2019-01-14T16:05:19.318Z,5.40
2019-01-14T16:07:48.011Z,5.40
2019-01-14T16:10:42.745Z,5.40
2019-01-14T16:13:11.227Z,5.40
2019-01-14T16:15:39.570Z,5.40
2019-01-14T16:18:07.874Z,5.40
2019-01-14T16:20:36.921Z,5.50
2019-01-14T16:23:05.323Z,5.50
2019-01-14T16:25:34.446Z,5.50
2019-01-14T16:28:02.714Z,5.50
2019-01-14T16:30:31.047Z,5.50
2019-01-14T16:32:59.759Z,5.50
2019-01-14T16:35:29.294Z,5.50
2019-01-14T16:37:57.691Z,5.50
2019-01-14T16:40:26.172Z,5.50
2019-01-14T16:42:54.756Z,5.50
2019-01-14T16:45:23.678Z,5.50
2019-01-14T16:47:51.993Z,5.50
2019-01-14T16:50:20.273Z,5.50
2019-01-14T16:52:50.298Z,5.50
2019-01-14T16:55:20.237Z,5.50
2019-01-14T16:57:49.044Z,5.60
2019-01-14T17:00:18.265Z,5.50
2019-01-14T17:02:51.227Z,5.50
2019-01-14T17:05:20.682Z,5.40
2019-01-14T17:07:49.316Z,5.30
2019-01-14T17:10:25.019Z,5.30
2019-01-14T17:12:47.920Z,5.20
2019-01-14T17:15:16.911Z,5.20
2019-01-14T17:17:46.632Z,5.10
2019-01-14T17:20:17.732Z,5.10
2019-01-14T17:22:48.978Z,5.10
2019-01-14T17:25:17.378Z,5.10
2019-01-14T17:27:45.655Z,5.10
2019-01-14T17:30:18.827Z,5.10
2019-01-14T17:32:48.195Z,5.10
2019-01-14T17:35:16.533Z,5.10
2019-01-14T17:37:44.812Z,5.10
2019-01-14T17:40:18.758Z,5.10
2019-01-14T17:42:47.060Z,5.10
2019-01-14T17:45:15.404Z,5.00
2019-01-14T17:47:45.358Z,5.00
2019-01-14T17:50:19.009Z,4.90
2019-01-14T17:52:47.685Z,4.80
2019-01-14T17:55:16.157Z,4.70
2019-01-14T17:57:45.621Z,4.60
2019-01-14T18:00:21.002Z,4.60
2019-01-14T18:02:49.309Z,4.60
2019-01-14T18:05:17.687Z,4.50
2019-01-14T18:07:47.596Z,4.40
2019-01-14T18:10:19.405Z,4.40
2019-01-14T18:12:48.868Z,4.40
2019-01-14T18:15:22.630Z,4.30
2019-01-14T18:17:50.920Z,4.30
2019-01-14T18:20:19.265Z,4.30
2019-01-14T18:22:47.695Z,4.20
2019-01-14T18:25:17.626Z,4.30
2019-01-14T18:27:46.010Z,4.20
2019-01-14T18:30:19.865Z,4.20
2019-01-14T18:32:51.214Z,4.10
2019-01-14T18:35:20.697Z,4.10
2019-01-14T18:37:48.989Z,4.00
2019-01-14T18:40:18.959Z,4.00
2019-01-14T18:42:52.689Z,4.00
2019-01-14T18:45:22.515Z,3.90
2019-01-14T18:47:52.150Z,3.90
2019-01-14T18:50:21.091Z,3.90
2019-01-14T18:52:51.963Z,3.90
2019-01-14T18:55:20.598Z,3.90
2019-01-14T18:57:48.942Z,4.00
2019-01-14T19:00:21.498Z,4.00
2019-01-14T19:02:52.116Z,4.00
2019-01-14T19:05:20.496Z,4.10
2019-01-14T19:07:51.881Z,4.10
2019-01-14T19:10:20.347Z,4.10
2019-01-14T19:12:48.820Z,4.10
2019-01-14T19:15:18.831Z,4.10
2019-01-14T19:17:50.224Z,4.10
2019-01-14T19:20:20.778Z,4.10
2019-01-14T19:22:49.052Z,4.10
2019-01-14T19:25:17.349Z,4.10
2019-01-14T19:27:45.774Z,4.10
2019-01-14T19:30:19.635Z,4.00
2019-01-14T19:32:48.058Z,3.90
2019-01-14T19:35:16.505Z,3.90
2019-01-14T19:37:47.750Z,3.80
2019-01-14T19:40:18.358Z,3.80
2019-01-14T19:42:46.776Z,3.70
2019-01-14T19:45:17.802Z,3.70
2019-01-14T19:47:46.138Z,3.60
2019-01-14T19:50:20.665Z,3.60
2019-01-14T19:52:49.012Z,3.50
2019-01-14T19:55:17.364Z,3.50
2019-01-14T19:57:47.000Z,3.50
2019-01-14T20:00:18.368Z,3.40
2019-01-14T20:02:46.712Z,3.40
2019-01-14T20:05:15.179Z,3.40
2019-01-14T20:07:43.516Z,3.40
2019-01-14T20:10:14.562Z,3.40
2019-01-14T20:12:43.003Z,3.40
2019-01-14T20:15:16.726Z,3.40
2019-01-14T20:17:45.012Z,3.40
2019-01-14T20:20:14.968Z,3.40
2019-01-14T20:22:43.332Z,3.40
2019-01-14T20:25:12.184Z,3.40
2019-01-14T20:27:40.579Z,3.40
2019-01-14T20:30:14.483Z,3.40
2019-01-14T20:32:42.910Z,3.40
2019-01-14T20:35:11.284Z,3.40
2019-01-14T20:37:40.240Z,3.40
2019-01-14T20:40:12.430Z,3.40
2019-01-14T20:42:42.820Z,3.40
2019-01-14T20:45:15.850Z,3.30
2019-01-14T20:47:44.238Z,3.30
2019-01-14T20:50:14.694Z,3.30
2019-01-14T20:52:43.098Z,3.20
2019-01-14T20:55:11.383Z,3.20
2019-01-14T20:57:39.805Z,3.10
2019-01-14T21:00:16.993Z,3.10
2019-01-14T21:02:45.465Z,3.00
2019-01-14T21:05:14.118Z,3.00
2019-01-14T21:07:42.470Z,3.00
2019-01-14T21:10:12.782Z,2.90
2019-01-14T21:12:41.270Z,2.90
2019-01-14T21:15:11.249Z,2.90
2019-01-14T21:17:41.905Z,2.80
2019-01-14T21:20:16.437Z,2.80
2019-01-14T21:22:45.443Z,2.80
2019-01-14T21:25:14.914Z,2.70
2019-01-14T21:27:44.192Z,2.70
2019-01-14T21:30:18.273Z,2.70
2019-01-14T21:32:49.588Z,2.60
2019-01-14T21:35:18.190Z,2.60
2019-01-14T21:37:49.565Z,2.50
2019-01-14T21:40:17.849Z,2.50
2019-01-14T21:42:46.226Z,2.50
2019-01-14T21:45:17.986Z,2.50
2019-01-14T21:47:46.325Z,2.50
2019-01-14T21:50:17.228Z,2.50
2019-01-14T21:52:47.533Z,2.50
2019-01-14T21:55:20.795Z,2.40
2019-01-14T21:57:50.550Z,2.40
2019-01-14T22:00:26.079Z,2.40
2019-01-14T22:02:54.622Z,2.30
2019-01-14T22:05:22.948Z,2.30
2019-01-14T22:07:51.289Z,2.30
2019-01-14T22:10:24.911Z,2.30
2019-01-14T22:12:53.384Z,2.30
2019-01-14T22:15:21.672Z,2.30
2019-01-14T22:17:51.023Z,2.30
2019-01-14T22:20:23.929Z,2.20
2019-01-14T22:22:52.589Z,2.20
2019-01-14T22:25:21.940Z,2.20
2019-01-14T22:27:50.321Z,2.20
2019-01-14T22:30:21.813Z,2.20
2019-01-14T22:32:51.779Z,2.20
2019-01-14T22:35:20.211Z,2.20
2019-01-14T22:37:48.516Z,2.20
2019-01-14T22:40:16.833Z,2.20
2019-01-14T22:42:45.115Z,2.20
2019-01-14T22:45:16.632Z,2.10
2019-01-14T22:47:44.932Z,2.10
2019-01-14T22:50:15.473Z,2.10
2019-01-14T22:52:43.792Z,2.10
2019-01-14T22:55:12.135Z,2.00
2019-01-14T22:57:40.404Z,2.00
2019-01-14T23:00:28.039Z,2.00
2019-01-14T23:02:59.027Z,2.00
2019-01-14T23:05:30.518Z,2.00
2019-01-14T23:07:58.843Z,1.90
2019-01-14T23:10:30.386Z,1.90
2019-01-14T23:12:58.662Z,1.90
2019-01-14T23:15:27.315Z,1.80
2019-01-14T23:17:55.713Z,1.80
2019-01-14T23:20:25.162Z,1.80
2019-01-14T23:22:53.650Z,1.80
2019-01-14T23:25:22.140Z,1.80
2019-01-14T23:27:50.439Z,1.80
2019-01-14T23:30:18.762Z,1.80
2019-01-14T23:32:47.074Z,1.80
2019-01-14T23:35:16.974Z,1.80
2019-01-14T23:37:45.262Z,1.80
2019-01-14T23:40:17.790Z,1.80
2019-01-14T23:42:48.733Z,1.80
2019-01-14T23:45:18.274Z,1.80
2019-01-14T23:47:48.624Z,1.80
2019-01-14T23:50:17.351Z,1.80
2019-01-14T23:52:48.336Z,1.70
2019-01-14T23:55:16.660Z,1.70
2019-01-14T23:57:46.240Z,1.70
